sensor_id;sensor_type;location;lat;lon;timestamp;P1;durP1;ratioP1;P2;durP2;ratioP2
21999;SDS011;11164;48.818;2.322;2023-04-06T00:00:22;11.30;;;6.90;;
21999;SDS011;11164;48.818;2.322;2023-04-06T00:02:48;15.00;;;7.18;;
21999;SDS011;11164;48.818;2.322;2023-04-06T00:05:14;12.70;;;7.22;;
21999;SDS011;11164;48.818;2.322;2023-04-06T00:07:39;13.35;;;7.63;;
21999;SDS011;11164;48.818;2.322;2023-04-06T00:10:05;12.43;;;7.25;;
21999;SDS011;11164;48.818;2.322;2023-04-06T00:12:31;11.93;;;6.97;;
21999;SDS011;11164;48.818;2.322;2023-04-06T00:14:56;13.23;;;7.38;;
21999;SDS011;11164;48.818;2.322;2023-04-06T00:17:22;13.45;;;7.30;;
21999;SDS011;11164;48.818;2.322;2023-04-06T00:19:47;15.43;;;7.30;;
21999;SDS011;11164;48.818;2.322;2023-04-06T00:22:12;14.00;;;7.10;;
21999;SDS011;11164;48.818;2.322;2023-04-06T00:24:38;14.40;;;7.43;;
21999;SDS011;11164;48.818;2.322;2023-04-06T00:27:03;13.05;;;7.43;;
21999;SDS011;11164;48.818;2.322;2023-04-06T00:29:28;14.55;;;7.25;;
21999;SDS011;11164;48.818;2.322;2023-04-06T00:31:53;16.02;;;7.40;;
21999;SDS011;11164;48.818;2.322;2023-04-06T00:34:19;13.18;;;7.45;;
21999;SDS011;11164;48.818;2.322;2023-04-06T00:36:44;13.98;;;7.40;;
21999;SDS011;11164;48.818;2.322;2023-04-06T00:39:10;16.10;;;7.35;;
21999;SDS011;11164;48.818;2.322;2023-04-06T00:41:35;13.70;;;7.88;;
21999;SDS011;11164;48.818;2.322;2023-04-06T00:44:00;14.55;;;7.88;;
21999;SDS011;11164;48.818;2.322;2023-04-06T00:46:26;14.82;;;7.93;;
21999;SDS011;11164;48.818;2.322;2023-04-06T00:48:51;14.52;;;8.25;;
21999;SDS011;11164;48.818;2.322;2023-04-06T00:51:17;15.73;;;8.75;;
21999;SDS011;11164;48.818;2.322;2023-04-06T00:53:42;15.82;;;8.05;;
21999;SDS011;11164;48.818;2.322;2023-04-06T00:56:07;14.70;;;8.18;;
21999;SDS011;11164;48.818;2.322;2023-04-06T00:58:35;15.63;;;8.60;;
21999;SDS011;11164;48.818;2.322;2023-04-06T01:01:03;14.70;;;8.38;;
21999;SDS011;11164;48.818;2.322;2023-04-06T01:03:29;16.67;;;9.45;;
21999;SDS011;11164;48.818;2.322;2023-04-06T01:05:54;17.52;;;8.52;;
21999;SDS011;11164;48.818;2.322;2023-04-06T01:08:23;16.95;;;8.23;;
21999;SDS011;11164;48.818;2.322;2023-04-06T01:10:49;15.20;;;8.50;;
21999;SDS011;11164;48.818;2.322;2023-04-06T01:13:14;17.38;;;9.20;;
21999;SDS011;11164;48.818;2.322;2023-04-06T01:15:40;16.15;;;9.48;;
21999;SDS011;11164;48.818;2.322;2023-04-06T01:18:07;17.30;;;8.70;;
21999;SDS011;11164;48.818;2.322;2023-04-06T01:20:35;19.20;;;9.23;;
21999;SDS011;11164;48.818;2.322;2023-04-06T01:23:00;14.82;;;8.70;;
21999;SDS011;11164;48.818;2.322;2023-04-06T01:25:25;20.80;;;9.60;;
21999;SDS011;11164;48.818;2.322;2023-04-06T01:27:51;16.60;;;8.93;;
21999;SDS011;11164;48.818;2.322;2023-04-06T01:30:16;16.23;;;8.70;;
21999;SDS011;11164;48.818;2.322;2023-04-06T01:32:42;15.27;;;8.85;;
21999;SDS011;11164;48.818;2.322;2023-04-06T01:35:08;16.55;;;9.68;;
21999;SDS011;11164;48.818;2.322;2023-04-06T01:37:33;16.75;;;8.60;;
21999;SDS011;11164;48.818;2.322;2023-04-06T01:39:59;16.20;;;8.55;;
21999;SDS011;11164;48.818;2.322;2023-04-06T01:42:24;17.15;;;8.40;;
21999;SDS011;11164;48.818;2.322;2023-04-06T01:44:51;16.15;;;8.73;;
21999;SDS011;11164;48.818;2.322;2023-04-06T01:47:16;18.92;;;9.32;;
21999;SDS011;11164;48.818;2.322;2023-04-06T01:49:41;17.15;;;8.68;;
21999;SDS011;11164;48.818;2.322;2023-04-06T01:52:06;18.60;;;8.82;;
21999;SDS011;11164;48.818;2.322;2023-04-06T01:54:32;16.42;;;8.50;;
21999;SDS011;11164;48.818;2.322;2023-04-06T01:56:57;17.85;;;9.05;;
21999;SDS011;11164;48.818;2.322;2023-04-06T01:59:23;16.60;;;9.10;;
21999;SDS011;11164;48.818;2.322;2023-04-06T02:01:48;19.95;;;9.48;;
21999;SDS011;11164;48.818;2.322;2023-04-06T02:04:14;14.82;;;9.07;;
21999;SDS011;11164;48.818;2.322;2023-04-06T02:06:39;14.63;;;8.82;;
21999;SDS011;11164;48.818;2.322;2023-04-06T02:09:05;16.92;;;8.57;;
21999;SDS011;11164;48.818;2.322;2023-04-06T02:11:30;16.30;;;9.27;;
21999;SDS011;11164;48.818;2.322;2023-04-06T02:13:55;14.82;;;8.70;;
21999;SDS011;11164;48.818;2.322;2023-04-06T02:16:21;19.73;;;8.38;;
21999;SDS011;11164;48.818;2.322;2023-04-06T02:18:47;17.73;;;8.88;;
21999;SDS011;11164;48.818;2.322;2023-04-06T02:21:12;18.13;;;8.75;;
21999;SDS011;11164;48.818;2.322;2023-04-06T02:23:37;17.75;;;8.50;;
21999;SDS011;11164;48.818;2.322;2023-04-06T02:26:03;17.20;;;8.90;;
21999;SDS011;11164;48.818;2.322;2023-04-06T02:28:28;15.23;;;8.70;;
21999;SDS011;11164;48.818;2.322;2023-04-06T02:30:53;16.33;;;8.73;;
21999;SDS011;11164;48.818;2.322;2023-04-06T02:33:19;14.73;;;8.73;;
21999;SDS011;11164;48.818;2.322;2023-04-06T02:35:44;14.48;;;8.73;;
21999;SDS011;11164;48.818;2.322;2023-04-06T02:38:11;16.45;;;8.40;;
21999;SDS011;11164;48.818;2.322;2023-04-06T02:40:36;15.27;;;8.27;;
21999;SDS011;11164;48.818;2.322;2023-04-06T02:43:01;17.52;;;8.63;;
21999;SDS011;11164;48.818;2.322;2023-04-06T02:45:27;17.00;;;9.45;;
21999;SDS011;11164;48.818;2.322;2023-04-06T02:47:52;17.33;;;9.55;;
21999;SDS011;11164;48.818;2.322;2023-04-06T02:50:17;14.85;;;8.90;;
21999;SDS011;11164;48.818;2.322;2023-04-06T02:52:42;17.85;;;9.45;;
21999;SDS011;11164;48.818;2.322;2023-04-06T02:55:08;16.45;;;8.68;;
21999;SDS011;11164;48.818;2.322;2023-04-06T02:57:34;16.83;;;8.88;;
21999;SDS011;11164;48.818;2.322;2023-04-06T02:59:59;15.85;;;8.93;;
21999;SDS011;11164;48.818;2.322;2023-04-06T03:02:24;15.07;;;8.88;;
21999;SDS011;11164;48.818;2.322;2023-04-06T03:04:50;17.00;;;8.75;;
21999;SDS011;11164;48.818;2.322;2023-04-06T03:07:15;16.13;;;8.98;;
21999;SDS011;11164;48.818;2.322;2023-04-06T03:09:41;16.05;;;8.90;;
21999;SDS011;11164;48.818;2.322;2023-04-06T03:12:06;14.88;;;8.35;;
21999;SDS011;11164;48.818;2.322;2023-04-06T03:14:31;15.45;;;8.88;;
21999;SDS011;11164;48.818;2.322;2023-04-06T03:16:57;16.27;;;8.55;;
21999;SDS011;11164;48.818;2.322;2023-04-06T03:19:22;15.38;;;8.50;;
21999;SDS011;11164;48.818;2.322;2023-04-06T03:21:47;15.20;;;8.45;;
21999;SDS011;11164;48.818;2.322;2023-04-06T03:24:13;14.43;;;7.47;;
21999;SDS011;11164;48.818;2.322;2023-04-06T03:26:38;15.10;;;8.80;;
21999;SDS011;11164;48.818;2.322;2023-04-06T03:29:04;14.25;;;8.50;;
21999;SDS011;11164;48.818;2.322;2023-04-06T03:31:29;14.80;;;8.18;;
21999;SDS011;11164;48.818;2.322;2023-04-06T03:33:55;17.20;;;8.95;;
21999;SDS011;11164;48.818;2.322;2023-04-06T03:36:20;16.77;;;8.80;;
21999;SDS011;11164;48.818;2.322;2023-04-06T03:38:46;19.40;;;8.68;;
21999;SDS011;11164;48.818;2.322;2023-04-06T03:41:11;14.75;;;8.52;;
21999;SDS011;11164;48.818;2.322;2023-04-06T03:43:36;16.40;;;8.77;;
21999;SDS011;11164;48.818;2.322;2023-04-06T03:46:02;15.52;;;8.27;;
21999;SDS011;11164;48.818;2.322;2023-04-06T03:48:27;14.43;;;8.30;;
21999;SDS011;11164;48.818;2.322;2023-04-06T03:50:52;14.05;;;8.82;;
21999;SDS011;11164;48.818;2.322;2023-04-06T03:53:18;14.55;;;8.40;;
21999;SDS011;11164;48.818;2.322;2023-04-06T03:55:43;15.05;;;8.15;;
21999;SDS011;11164;48.818;2.322;2023-04-06T03:58:08;15.60;;;8.82;;
21999;SDS011;11164;48.818;2.322;2023-04-06T04:00:34;16.85;;;8.40;;
21999;SDS011;11164;48.818;2.322;2023-04-06T04:02:59;16.65;;;8.68;;
21999;SDS011;11164;48.818;2.322;2023-04-06T04:05:26;16.10;;;8.43;;
21999;SDS011;11164;48.818;2.322;2023-04-06T04:07:52;16.85;;;8.43;;
21999;SDS011;11164;48.818;2.322;2023-04-06T04:10:17;16.98;;;9.23;;
21999;SDS011;11164;48.818;2.322;2023-04-06T04:12:42;13.90;;;8.80;;
21999;SDS011;11164;48.818;2.322;2023-04-06T04:15:08;15.20;;;8.90;;
21999;SDS011;11164;48.818;2.322;2023-04-06T04:17:33;15.88;;;8.65;;
21999;SDS011;11164;48.818;2.322;2023-04-06T04:19:59;15.95;;;8.90;;
21999;SDS011;11164;48.818;2.322;2023-04-06T04:22:24;15.18;;;9.07;;
21999;SDS011;11164;48.818;2.322;2023-04-06T04:24:50;15.38;;;8.93;;
21999;SDS011;11164;48.818;2.322;2023-04-06T04:27:15;15.70;;;8.57;;
21999;SDS011;11164;48.818;2.322;2023-04-06T04:29:40;17.20;;;9.13;;
21999;SDS011;11164;48.818;2.322;2023-04-06T04:32:05;16.30;;;8.50;;
21999;SDS011;11164;48.818;2.322;2023-04-06T04:34:31;13.77;;;7.90;;
21999;SDS011;11164;48.818;2.322;2023-04-06T04:36:56;16.15;;;9.07;;
21999;SDS011;11164;48.818;2.322;2023-04-06T04:39:22;16.35;;;8.85;;
21999;SDS011;11164;48.818;2.322;2023-04-06T04:41:47;18.45;;;8.63;;
21999;SDS011;11164;48.818;2.322;2023-04-06T04:44:12;18.40;;;8.98;;
21999;SDS011;11164;48.818;2.322;2023-04-06T04:46:38;15.23;;;8.55;;
21999;SDS011;11164;48.818;2.322;2023-04-06T04:49:03;16.55;;;8.23;;
21999;SDS011;11164;48.818;2.322;2023-04-06T04:51:29;18.88;;;8.65;;
21999;SDS011;11164;48.818;2.322;2023-04-06T04:53:56;13.05;;;7.80;;
21999;SDS011;11164;48.818;2.322;2023-04-06T04:56:21;15.73;;;8.13;;
21999;SDS011;11164;48.818;2.322;2023-04-06T04:58:46;16.30;;;8.23;;
21999;SDS011;11164;48.818;2.322;2023-04-06T05:01:12;13.95;;;8.00;;
21999;SDS011;11164;48.818;2.322;2023-04-06T05:03:37;16.00;;;7.78;;
21999;SDS011;11164;48.818;2.322;2023-04-06T05:06:04;18.20;;;8.10;;
21999;SDS011;11164;48.818;2.322;2023-04-06T05:08:30;15.77;;;8.40;;
21999;SDS011;11164;48.818;2.322;2023-04-06T05:10:55;21.90;;;8.80;;
21999;SDS011;11164;48.818;2.322;2023-04-06T05:13:20;24.23;;;9.00;;
21999;SDS011;11164;48.818;2.322;2023-04-06T05:15:46;19.73;;;8.93;;
21999;SDS011;11164;48.818;2.322;2023-04-06T05:18:11;17.88;;;8.68;;
21999;SDS011;11164;48.818;2.322;2023-04-06T05:20:37;16.48;;;8.13;;
21999;SDS011;11164;48.818;2.322;2023-04-06T05:23:04;14.95;;;7.60;;
21999;SDS011;11164;48.818;2.322;2023-04-06T05:25:29;14.90;;;8.02;;
21999;SDS011;11164;48.818;2.322;2023-04-06T05:27:55;14.70;;;7.22;;
21999;SDS011;11164;48.818;2.322;2023-04-06T05:30:20;13.48;;;7.43;;
21999;SDS011;11164;48.818;2.322;2023-04-06T05:32:46;15.65;;;7.88;;
21999;SDS011;11164;48.818;2.322;2023-04-06T05:35:11;13.57;;;7.15;;
21999;SDS011;11164;48.818;2.322;2023-04-06T05:37:38;13.50;;;7.10;;
21999;SDS011;11164;48.818;2.322;2023-04-06T05:40:03;14.80;;;7.47;;
21999;SDS011;11164;48.818;2.322;2023-04-06T05:42:36;16.55;;;7.90;;
21999;SDS011;11164;48.818;2.322;2023-04-06T05:45:06;13.27;;;7.20;;
21999;SDS011;11164;48.818;2.322;2023-04-06T05:47:32;15.95;;;8.00;;
21999;SDS011;11164;48.818;2.322;2023-04-06T05:49:57;14.38;;;8.00;;
21999;SDS011;11164;48.818;2.322;2023-04-06T05:52:23;14.30;;;7.38;;
21999;SDS011;11164;48.818;2.322;2023-04-06T05:54:48;14.27;;;7.85;;
21999;SDS011;11164;48.818;2.322;2023-04-06T05:57:13;13.73;;;7.47;;
21999;SDS011;11164;48.818;2.322;2023-04-06T05:59:39;14.13;;;7.13;;
21999;SDS011;11164;48.818;2.322;2023-04-06T06:02:04;15.27;;;7.55;;
21999;SDS011;11164;48.818;2.322;2023-04-06T06:04:30;16.50;;;7.88;;
21999;SDS011;11164;48.818;2.322;2023-04-06T06:06:56;15.13;;;8.00;;
21999;SDS011;11164;48.818;2.322;2023-04-06T06:09:21;16.17;;;8.65;;
21999;SDS011;11164;48.818;2.322;2023-04-06T06:11:47;13.70;;;7.60;;
21999;SDS011;11164;48.818;2.322;2023-04-06T06:14:13;17.58;;;7.25;;
21999;SDS011;11164;48.818;2.322;2023-04-06T06:16:38;14.73;;;7.68;;
21999;SDS011;11164;48.818;2.322;2023-04-06T06:19:03;17.35;;;8.07;;
21999;SDS011;11164;48.818;2.322;2023-04-06T06:21:29;13.10;;;7.57;;
21999;SDS011;11164;48.818;2.322;2023-04-06T06:23:56;14.98;;;8.07;;
21999;SDS011;11164;48.818;2.322;2023-04-06T06:26:21;15.30;;;8.13;;
21999;SDS011;11164;48.818;2.322;2023-04-06T06:28:47;13.30;;;7.93;;
21999;SDS011;11164;48.818;2.322;2023-04-06T06:31:12;15.45;;;8.00;;
21999;SDS011;11164;48.818;2.322;2023-04-06T06:33:37;14.23;;;8.13;;
21999;SDS011;11164;48.818;2.322;2023-04-06T06:36:03;13.70;;;8.27;;
21999;SDS011;11164;48.818;2.322;2023-04-06T06:38:28;17.75;;;7.95;;
21999;SDS011;11164;48.818;2.322;2023-04-06T06:40:54;18.00;;;8.77;;
21999;SDS011;11164;48.818;2.322;2023-04-06T06:43:19;14.70;;;7.80;;
21999;SDS011;11164;48.818;2.322;2023-04-06T06:45:45;15.55;;;7.97;;
21999;SDS011;11164;48.818;2.322;2023-04-06T06:48:10;17.67;;;8.98;;
21999;SDS011;11164;48.818;2.322;2023-04-06T06:50:35;18.15;;;8.57;;
21999;SDS011;11164;48.818;2.322;2023-04-06T06:53:01;16.15;;;8.73;;
21999;SDS011;11164;48.818;2.322;2023-04-06T06:55:26;15.80;;;7.97;;
21999;SDS011;11164;48.818;2.322;2023-04-06T06:57:52;15.00;;;8.43;;
21999;SDS011;11164;48.818;2.322;2023-04-06T07:00:18;15.82;;;8.50;;
21999;SDS011;11164;48.818;2.322;2023-04-06T07:02:45;15.35;;;8.60;;
21999;SDS011;11164;48.818;2.322;2023-04-06T07:05:11;16.88;;;8.48;;
21999;SDS011;11164;48.818;2.322;2023-04-06T07:07:36;17.85;;;8.73;;
21999;SDS011;11164;48.818;2.322;2023-04-06T07:10:02;16.00;;;8.63;;
21999;SDS011;11164;48.818;2.322;2023-04-06T07:12:27;16.25;;;8.23;;
21999;SDS011;11164;48.818;2.322;2023-04-06T07:14:53;15.20;;;8.10;;
21999;SDS011;11164;48.818;2.322;2023-04-06T07:17:18;16.10;;;8.45;;
21999;SDS011;11164;48.818;2.322;2023-04-06T07:19:43;17.60;;;9.27;;
21999;SDS011;11164;48.818;2.322;2023-04-06T07:22:10;16.60;;;8.40;;
21999;SDS011;11164;48.818;2.322;2023-04-06T07:24:35;12.50;;;7.88;;
21999;SDS011;11164;48.818;2.322;2023-04-06T07:27:00;17.27;;;8.57;;
21999;SDS011;11164;48.818;2.322;2023-04-06T07:29:26;14.07;;;7.95;;
21999;SDS011;11164;48.818;2.322;2023-04-06T07:31:52;17.50;;;8.57;;
21999;SDS011;11164;48.818;2.322;2023-04-06T07:34:18;13.05;;;8.07;;
21999;SDS011;11164;48.818;2.322;2023-04-06T07:36:43;13.32;;;8.32;;
21999;SDS011;11164;48.818;2.322;2023-04-06T07:39:09;15.48;;;7.85;;
21999;SDS011;11164;48.818;2.322;2023-04-06T07:41:35;17.08;;;8.73;;
21999;SDS011;11164;48.818;2.322;2023-04-06T07:44:01;19.00;;;8.95;;
21999;SDS011;11164;48.818;2.322;2023-04-06T07:46:26;12.95;;;7.22;;
21999;SDS011;11164;48.818;2.322;2023-04-06T07:48:51;16.95;;;9.40;;
21999;SDS011;11164;48.818;2.322;2023-04-06T07:51:17;15.45;;;8.77;;
21999;SDS011;11164;48.818;2.322;2023-04-06T07:53:43;15.82;;;9.23;;
21999;SDS011;11164;48.818;2.322;2023-04-06T07:56:09;15.52;;;9.15;;
21999;SDS011;11164;48.818;2.322;2023-04-06T07:58:34;16.67;;;9.55;;
21999;SDS011;11164;48.818;2.322;2023-04-06T08:01:00;18.10;;;9.95;;
21999;SDS011;11164;48.818;2.322;2023-04-06T08:03:26;20.55;;;10.95;;
21999;SDS011;11164;48.818;2.322;2023-04-06T08:05:51;18.25;;;11.18;;
21999;SDS011;11164;48.818;2.322;2023-04-06T08:08:17;21.25;;;10.93;;
21999;SDS011;11164;48.818;2.322;2023-04-06T08:10:43;21.23;;;11.95;;
21999;SDS011;11164;48.818;2.322;2023-04-06T08:13:08;18.30;;;10.82;;
21999;SDS011;11164;48.818;2.322;2023-04-06T08:15:34;17.35;;;10.18;;
21999;SDS011;11164;48.818;2.322;2023-04-06T08:17:59;15.32;;;9.52;;
21999;SDS011;11164;48.818;2.322;2023-04-06T08:20:25;17.15;;;10.30;;
21999;SDS011;11164;48.818;2.322;2023-04-06T08:22:50;17.00;;;9.80;;
21999;SDS011;11164;48.818;2.322;2023-04-06T08:25:15;15.52;;;10.00;;
21999;SDS011;11164;48.818;2.322;2023-04-06T08:27:41;18.40;;;10.63;;
21999;SDS011;11164;48.818;2.322;2023-04-06T08:30:06;18.05;;;9.85;;
21999;SDS011;11164;48.818;2.322;2023-04-06T08:32:32;16.05;;;9.82;;
21999;SDS011;11164;48.818;2.322;2023-04-06T08:34:57;19.67;;;10.15;;
21999;SDS011;11164;48.818;2.322;2023-04-06T08:37:22;15.88;;;9.80;;
21999;SDS011;11164;48.818;2.322;2023-04-06T08:39:48;17.58;;;10.80;;
21999;SDS011;11164;48.818;2.322;2023-04-06T08:42:16;18.38;;;10.50;;
21999;SDS011;11164;48.818;2.322;2023-04-06T08:44:45;15.73;;;10.35;;
21999;SDS011;11164;48.818;2.322;2023-04-06T08:47:12;17.05;;;10.63;;
21999;SDS011;11164;48.818;2.322;2023-04-06T08:49:37;16.98;;;8.70;;
21999;SDS011;11164;48.818;2.322;2023-04-06T08:52:06;18.25;;;10.45;;
21999;SDS011;11164;48.818;2.322;2023-04-06T08:54:33;19.23;;;11.73;;
21999;SDS011;11164;48.818;2.322;2023-04-06T08:56:58;18.17;;;10.55;;
21999;SDS011;11164;48.818;2.322;2023-04-06T08:59:25;17.10;;;10.77;;
21999;SDS011;11164;48.818;2.322;2023-04-06T09:01:50;16.40;;;10.38;;
21999;SDS011;11164;48.818;2.322;2023-04-06T09:04:17;13.48;;;8.50;;
21999;SDS011;11164;48.818;2.322;2023-04-06T09:06:43;18.10;;;10.15;;
21999;SDS011;11164;48.818;2.322;2023-04-06T09:09:08;19.52;;;11.38;;
21999;SDS011;11164;48.818;2.322;2023-04-06T09:14:12;18.92;;;10.32;;
21999;SDS011;11164;48.818;2.322;2023-04-06T09:16:39;14.95;;;9.55;;
21999;SDS011;11164;48.818;2.322;2023-04-06T09:19:05;16.05;;;9.88;;
21999;SDS011;11164;48.818;2.322;2023-04-06T09:21:30;14.65;;;9.32;;
21999;SDS011;11164;48.818;2.322;2023-04-06T09:23:59;18.45;;;10.20;;
21999;SDS011;11164;48.818;2.322;2023-04-06T09:26:26;16.77;;;8.07;;
21999;SDS011;11164;48.818;2.322;2023-04-06T09:28:58;16.67;;;10.25;;
21999;SDS011;11164;48.818;2.322;2023-04-06T09:31:29;17.70;;;10.35;;
21999;SDS011;11164;48.818;2.322;2023-04-06T09:33:58;18.38;;;10.55;;
21999;SDS011;11164;48.818;2.322;2023-04-06T09:36:35;15.50;;;9.15;;
21999;SDS011;11164;48.818;2.322;2023-04-06T09:39:05;16.85;;;9.60;;
21999;SDS011;11164;48.818;2.322;2023-04-06T09:41:31;12.70;;;7.88;;
21999;SDS011;11164;48.818;2.322;2023-04-06T09:44:08;12.85;;;8.50;;
21999;SDS011;11164;48.818;2.322;2023-04-06T09:46:39;13.82;;;7.97;;
21999;SDS011;11164;48.818;2.322;2023-04-06T09:49:06;14.27;;;8.68;;
21999;SDS011;11164;48.818;2.322;2023-04-06T09:51:39;13.95;;;8.45;;
21999;SDS011;11164;48.818;2.322;2023-04-06T09:54:06;13.30;;;7.72;;
21999;SDS011;11164;48.818;2.322;2023-04-06T09:59:31;13.60;;;7.72;;
21999;SDS011;11164;48.818;2.322;2023-04-06T10:02:08;9.90;;;6.22;;
21999;SDS011;11164;48.818;2.322;2023-04-06T10:04:43;12.13;;;6.65;;
21999;SDS011;11164;48.818;2.322;2023-04-06T10:07:34;11.20;;;6.22;;
21999;SDS011;11164;48.818;2.322;2023-04-06T10:10:01;8.82;;;5.85;;
21999;SDS011;11164;48.818;2.322;2023-04-06T10:12:28;13.18;;;6.35;;
21999;SDS011;11164;48.818;2.322;2023-04-06T10:14:53;10.82;;;5.60;;
21999;SDS011;11164;48.818;2.322;2023-04-06T10:17:19;9.52;;;6.05;;
21999;SDS011;11164;48.818;2.322;2023-04-06T10:19:53;11.85;;;5.65;;
21999;SDS011;11164;48.818;2.322;2023-04-06T10:22:26;10.52;;;6.05;;
21999;SDS011;11164;48.818;2.322;2023-04-06T10:24:57;10.68;;;6.50;;
21999;SDS011;11164;48.818;2.322;2023-04-06T10:27:29;10.25;;;5.70;;
21999;SDS011;11164;48.818;2.322;2023-04-06T10:30:00;10.73;;;6.00;;
21999;SDS011;11164;48.818;2.322;2023-04-06T10:32:34;9.02;;;5.10;;
21999;SDS011;11164;48.818;2.322;2023-04-06T10:35:09;8.73;;;5.43;;
21999;SDS011;11164;48.818;2.322;2023-04-06T10:40:32;7.88;;;4.93;;
21999;SDS011;11164;48.818;2.322;2023-04-06T10:43:08;10.30;;;5.57;;
21999;SDS011;11164;48.818;2.322;2023-04-06T10:45:35;8.75;;;4.97;;
21999;SDS011;11164;48.818;2.322;2023-04-06T10:48:04;8.25;;;4.88;;
21999;SDS011;11164;48.818;2.322;2023-04-06T10:50:44;12.13;;;5.13;;
21999;SDS011;11164;48.818;2.322;2023-04-06T10:53:19;8.95;;;4.80;;
21999;SDS011;11164;48.818;2.322;2023-04-06T10:55:49;9.38;;;4.78;;
21999;SDS011;11164;48.818;2.322;2023-04-06T10:58:16;8.40;;;5.00;;
21999;SDS011;11164;48.818;2.322;2023-04-06T11:00:44;7.22;;;4.95;;
21999;SDS011;11164;48.818;2.322;2023-04-06T11:03:10;11.27;;;5.22;;
21999;SDS011;11164;48.818;2.322;2023-04-06T11:05:36;9.32;;;5.25;;
21999;SDS011;11164;48.818;2.322;2023-04-06T11:08:01;8.52;;;4.88;;
21999;SDS011;11164;48.818;2.322;2023-04-06T11:10:27;8.77;;;4.72;;
21999;SDS011;11164;48.818;2.322;2023-04-06T11:12:53;6.40;;;4.05;;
21999;SDS011;11164;48.818;2.322;2023-04-06T11:15:19;7.57;;;4.15;;
21999;SDS011;11164;48.818;2.322;2023-04-06T11:17:45;7.85;;;4.20;;
21999;SDS011;11164;48.818;2.322;2023-04-06T11:20:10;6.50;;;4.20;;
21999;SDS011;11164;48.818;2.322;2023-04-06T11:22:36;8.50;;;4.70;;
21999;SDS011;11164;48.818;2.322;2023-04-06T11:25:13;7.72;;;4.15;;
21999;SDS011;11164;48.818;2.322;2023-04-06T11:27:38;7.30;;;4.28;;
21999;SDS011;11164;48.818;2.322;2023-04-06T11:30:04;6.85;;;4.22;;
21999;SDS011;11164;48.818;2.322;2023-04-06T11:32:38;6.82;;;3.50;;
21999;SDS011;11164;48.818;2.322;2023-04-06T11:35:06;6.55;;;3.70;;
21999;SDS011;11164;48.818;2.322;2023-04-06T11:37:31;5.88;;;3.45;;
21999;SDS011;11164;48.818;2.322;2023-04-06T11:39:57;7.50;;;3.55;;
21999;SDS011;11164;48.818;2.322;2023-04-06T11:42:27;10.13;;;4.10;;
21999;SDS011;11164;48.818;2.322;2023-04-06T11:44:54;6.95;;;3.40;;
21999;SDS011;11164;48.818;2.322;2023-04-06T11:47:33;6.55;;;3.20;;
21999;SDS011;11164;48.818;2.322;2023-04-06T11:50:15;6.93;;;3.42;;
21999;SDS011;11164;48.818;2.322;2023-04-06T11:52:41;5.90;;;2.70;;
21999;SDS011;11164;48.818;2.322;2023-04-06T11:55:13;7.72;;;3.67;;
21999;SDS011;11164;48.818;2.322;2023-04-06T11:57:40;7.10;;;3.80;;
21999;SDS011;11164;48.818;2.322;2023-04-06T12:00:07;5.10;;;3.00;;
21999;SDS011;11164;48.818;2.322;2023-04-06T12:02:34;6.55;;;2.53;;
21999;SDS011;11164;48.818;2.322;2023-04-06T12:05:03;6.30;;;2.90;;
21999;SDS011;11164;48.818;2.322;2023-04-06T12:07:30;6.78;;;2.70;;
21999;SDS011;11164;48.818;2.322;2023-04-06T12:09:56;7.10;;;2.95;;
21999;SDS011;11164;48.818;2.322;2023-04-06T12:12:21;5.68;;;2.50;;
21999;SDS011;11164;48.818;2.322;2023-04-06T12:14:46;6.07;;;2.63;;
21999;SDS011;11164;48.818;2.322;2023-04-06T12:17:12;6.85;;;2.58;;
21999;SDS011;11164;48.818;2.322;2023-04-06T12:19:37;7.65;;;2.63;;
21999;SDS011;11164;48.818;2.322;2023-04-06T12:22:03;6.80;;;2.70;;
21999;SDS011;11164;48.818;2.322;2023-04-06T12:24:28;4.95;;;2.13;;
21999;SDS011;11164;48.818;2.322;2023-04-06T12:26:54;6.22;;;2.30;;
21999;SDS011;11164;48.818;2.322;2023-04-06T12:29:19;7.50;;;2.20;;
21999;SDS011;11164;48.818;2.322;2023-04-06T12:31:45;4.85;;;2.03;;
21999;SDS011;11164;48.818;2.322;2023-04-06T12:34:11;5.93;;;2.20;;
21999;SDS011;11164;48.818;2.322;2023-04-06T12:36:36;4.47;;;1.50;;
21999;SDS011;11164;48.818;2.322;2023-04-06T12:39:02;5.10;;;2.10;;
21999;SDS011;11164;48.818;2.322;2023-04-06T12:41:28;5.70;;;1.70;;
21999;SDS011;11164;48.818;2.322;2023-04-06T12:43:54;5.47;;;1.90;;
21999;SDS011;11164;48.818;2.322;2023-04-06T12:46:20;5.55;;;1.90;;
21999;SDS011;11164;48.818;2.322;2023-04-06T12:48:45;5.00;;;1.77;;
21999;SDS011;11164;48.818;2.322;2023-04-06T12:51:11;4.30;;;1.58;;
21999;SDS011;11164;48.818;2.322;2023-04-06T12:53:36;7.03;;;2.35;;
21999;SDS011;11164;48.818;2.322;2023-04-06T12:56:02;7.68;;;1.63;;
21999;SDS011;11164;48.818;2.322;2023-04-06T12:58:36;8.55;;;1.88;;
21999;SDS011;11164;48.818;2.322;2023-04-06T13:01:05;5.78;;;1.92;;
21999;SDS011;11164;48.818;2.322;2023-04-06T13:03:31;5.72;;;1.90;;
21999;SDS011;11164;48.818;2.322;2023-04-06T13:05:56;8.15;;;2.22;;
21999;SDS011;11164;48.818;2.322;2023-04-06T13:08:24;4.18;;;1.48;;
21999;SDS011;11164;48.818;2.322;2023-04-06T13:10:50;6.22;;;1.40;;
21999;SDS011;11164;48.818;2.322;2023-04-06T13:13:23;6.75;;;1.58;;
21999;SDS011;11164;48.818;2.322;2023-04-06T13:15:50;7.05;;;1.60;;
21999;SDS011;11164;48.818;2.322;2023-04-06T13:18:16;4.97;;;1.25;;
21999;SDS011;11164;48.818;2.322;2023-04-06T13:20:41;4.05;;;1.23;;
21999;SDS011;11164;48.818;2.322;2023-04-06T13:23:07;2.40;;;1.10;;
21999;SDS011;11164;48.818;2.322;2023-04-06T13:25:32;4.95;;;1.45;;
21999;SDS011;11164;48.818;2.322;2023-04-06T13:27:58;6.72;;;1.70;;
21999;SDS011;11164;48.818;2.322;2023-04-06T13:30:23;5.68;;;1.35;;
21999;SDS011;11164;48.818;2.322;2023-04-06T13:32:49;5.05;;;1.58;;
21999;SDS011;11164;48.818;2.322;2023-04-06T13:35:15;4.93;;;1.40;;
21999;SDS011;11164;48.818;2.322;2023-04-06T13:37:41;4.93;;;1.48;;
21999;SDS011;11164;48.818;2.322;2023-04-06T13:40:07;5.30;;;1.90;;
21999;SDS011;11164;48.818;2.322;2023-04-06T13:42:33;5.18;;;1.50;;
21999;SDS011;11164;48.818;2.322;2023-04-06T13:45:00;9.57;;;1.75;;
21999;SDS011;11164;48.818;2.322;2023-04-06T13:47:26;4.90;;;1.50;;
21999;SDS011;11164;48.818;2.322;2023-04-06T13:49:51;5.70;;;1.40;;
21999;SDS011;11164;48.818;2.322;2023-04-06T13:52:17;6.43;;;2.08;;
21999;SDS011;11164;48.818;2.322;2023-04-06T13:54:43;7.60;;;1.95;;
21999;SDS011;11164;48.818;2.322;2023-04-06T13:57:08;5.50;;;1.83;;
21999;SDS011;11164;48.818;2.322;2023-04-06T13:59:34;4.20;;;1.52;;
21999;SDS011;11164;48.818;2.322;2023-04-06T14:02:01;6.05;;;1.30;;
21999;SDS011;11164;48.818;2.322;2023-04-06T14:04:27;4.88;;;2.00;;
21999;SDS011;11164;48.818;2.322;2023-04-06T14:06:52;6.47;;;1.40;;
21999;SDS011;11164;48.818;2.322;2023-04-06T14:09:18;7.35;;;1.58;;
21999;SDS011;11164;48.818;2.322;2023-04-06T14:11:43;4.97;;;1.52;;
21999;SDS011;11164;48.818;2.322;2023-04-06T14:14:08;7.13;;;1.58;;
21999;SDS011;11164;48.818;2.322;2023-04-06T14:16:34;4.20;;;1.10;;
21999;SDS011;11164;48.818;2.322;2023-04-06T14:19:00;6.22;;;1.45;;
21999;SDS011;11164;48.818;2.322;2023-04-06T14:21:25;5.30;;;1.48;;
21999;SDS011;11164;48.818;2.322;2023-04-06T14:23:51;6.90;;;2.13;;
21999;SDS011;11164;48.818;2.322;2023-04-06T14:26:17;5.90;;;1.52;;
21999;SDS011;11164;48.818;2.322;2023-04-06T14:28:43;6.45;;;1.30;;
21999;SDS011;11164;48.818;2.322;2023-04-06T14:31:14;6.07;;;1.38;;
21999;SDS011;11164;48.818;2.322;2023-04-06T14:33:41;6.70;;;1.33;;
21999;SDS011;11164;48.818;2.322;2023-04-06T14:36:07;5.40;;;1.40;;
21999;SDS011;11164;48.818;2.322;2023-04-06T14:38:33;6.82;;;1.48;;
21999;SDS011;11164;48.818;2.322;2023-04-06T14:40:59;5.07;;;1.40;;